createdAt,value
2019-02-27T00:01:05.099Z,97512.73
2019-02-27T00:03:32.139Z,97514.27
2019-02-27T00:05:59.211Z,97509.13
2019-02-27T00:08:27.054Z,97511.66
2019-02-27T00:10:54.610Z,97508.85
2019-02-27T00:13:24.675Z,97509.03
2019-02-27T00:15:50.785Z,97508.56
2019-02-27T00:18:17.850Z,97501.10
2019-02-27T00:20:44.901Z,97499.19
2019-02-27T00:23:11.954Z,97500.21
2019-02-27T00:25:39.000Z,97495.59
2019-02-27T00:28:06.060Z,97495.02
2019-02-27T00:30:33.115Z,97502.92
2019-02-27T00:33:00.196Z,97497.48
2019-02-27T00:35:27.228Z,97486.72
2019-02-27T00:37:54.275Z,97502.45
2019-02-27T00:40:21.313Z,97502.66
2019-02-27T00:42:48.360Z,97496.09
2019-02-27T00:45:15.430Z,97500.33
2019-02-27T00:47:42.466Z,97494.58
2019-02-27T00:50:09.553Z,97497.96
2019-02-27T00:52:36.565Z,97493.84
2019-02-27T00:55:05.210Z,97501.42
2019-02-27T00:57:32.367Z,97497.47
2019-02-27T00:59:59.402Z,97488.55
2019-02-27T01:02:26.465Z,97487.08
2019-02-27T01:04:53.512Z,97491.61
2019-02-27T01:07:21.389Z,97493.30
2019-02-27T01:09:49.495Z,97483.69
2019-02-27T01:12:16.544Z,97490.38
2019-02-27T01:14:43.599Z,97472.56
2019-02-27T01:17:10.659Z,97471.41
2019-02-27T01:19:39.251Z,97480.73
2019-02-27T01:22:06.432Z,97469.44
2019-02-27T01:24:33.459Z,97466.82
2019-02-27T01:27:04.135Z,97478.48
2019-02-27T01:29:29.461Z,97493.15
2019-02-27T01:31:57.677Z,97471.66
2019-02-27T01:34:25.237Z,97467.09
2019-02-27T01:36:52.271Z,97462.91
2019-02-27T01:39:19.331Z,97460.72
2019-02-27T01:41:46.412Z,97454.03
2019-02-27T01:44:13.801Z,97451.31
2019-02-27T01:46:41.275Z,97448.14
2019-02-27T01:49:08.291Z,97452.97
2019-02-27T01:51:35.322Z,97446.19
2019-02-27T01:54:02.359Z,97434.36
2019-02-27T01:56:29.728Z,97442.03
2019-02-27T01:58:56.739Z,97440.20
2019-02-27T02:01:23.787Z,97430.36
2019-02-27T02:03:50.841Z,97425.36
2019-02-27T02:06:17.901Z,97414.48
2019-02-27T02:08:47.955Z,97409.30
2019-02-27T02:11:13.905Z,97411.62
2019-02-27T02:14:13.200Z,97411.94
2019-02-27T02:17:09.186Z,97413.62
2019-02-27T02:20:27.746Z,97412.14
2019-02-27T02:23:14.271Z,97408.03
2019-02-27T02:26:05.524Z,97401.56
2019-02-27T02:29:21.008Z,97396.08
2019-02-27T02:32:09.642Z,97398.27
2019-02-27T02:35:14.852Z,97397.14
2019-02-27T02:38:15.721Z,97397.02
2019-02-27T02:41:11.992Z,97399.20
2019-02-27T02:44:10.509Z,97402.58
2019-02-27T02:46:57.887Z,97404.10
2019-02-27T02:49:50.113Z,97399.98
2019-02-27T02:52:40.216Z,97397.00
2019-02-27T02:55:29.114Z,97389.70
2019-02-27T02:58:16.211Z,97386.58
2019-02-27T03:01:14.161Z,97384.98
2019-02-27T03:04:12.564Z,97390.84
2019-02-27T03:07:11.062Z,97393.07
2019-02-27T03:10:27.883Z,97392.27
2019-02-27T03:13:33.924Z,97390.84
2019-02-27T03:16:42.388Z,97388.70
2019-02-27T03:19:41.466Z,97391.53
2019-02-27T03:22:46.153Z,97388.38
2019-02-27T03:25:40.665Z,97385.27
2019-02-27T03:28:57.463Z,97393.76
2019-02-27T03:31:57.563Z,97397.27
2019-02-27T03:34:50.207Z,97397.48
2019-02-27T03:37:25.045Z,97392.34
2019-02-27T03:40:48.100Z,97399.19
2019-02-27T03:43:34.322Z,97401.03
2019-02-27T03:46:49.088Z,97395.05
2019-02-27T03:49:42.426Z,97402.22
2019-02-27T03:52:44.039Z,97406.88
2019-02-27T03:56:10.108Z,97406.88
2019-02-27T03:59:17.411Z,97408.89
2019-02-27T04:02:22.024Z,97409.73
2019-02-27T04:05:06.939Z,97412.55
2019-02-27T04:08:08.280Z,97416.20
2019-02-27T04:10:33.601Z,97410.73
2019-02-27T04:13:00.641Z,97409.37
2019-02-27T04:15:27.675Z,97413.86
2019-02-27T04:17:53.713Z,97411.83
2019-02-27T04:20:20.747Z,97410.16
2019-02-27T04:22:47.789Z,97408.84
2019-02-27T04:25:14.840Z,97412.49
2019-02-27T04:27:41.869Z,97413.66
2019-02-27T04:30:08.927Z,97411.00
2019-02-27T04:32:35.982Z,97410.84
2019-02-27T04:35:05.929Z,97418.17
2019-02-27T04:37:32.030Z,97413.86
2019-02-27T04:39:59.104Z,97413.52
2019-02-27T04:42:26.526Z,97417.02
2019-02-27T04:44:53.557Z,97413.16
2019-02-27T04:47:20.984Z,97409.37
2019-02-27T04:49:48.036Z,97413.36
2019-02-27T04:52:15.072Z,97412.36
2019-02-27T04:54:42.198Z,97409.37
2019-02-27T04:57:09.256Z,97406.21
2019-02-27T04:59:36.281Z,97415.85
2019-02-27T05:02:03.328Z,97410.53
2019-02-27T05:04:34.793Z,97406.58
2019-02-27T05:06:59.288Z,97412.88
2019-02-27T05:09:26.344Z,97411.39
2019-02-27T05:11:53.390Z,97407.73
2019-02-27T05:14:20.456Z,97402.41
2019-02-27T05:16:47.836Z,97399.91
2019-02-27T05:19:15.311Z,97402.44
2019-02-27T05:21:42.493Z,97402.77
2019-02-27T05:24:09.526Z,97401.43
2019-02-27T05:26:36.562Z,97406.91
2019-02-27T05:29:03.620Z,97397.94
2019-02-27T05:31:30.671Z,97399.92
2019-02-27T05:33:57.722Z,97396.59
2019-02-27T05:36:24.800Z,97404.56
2019-02-27T05:38:51.855Z,97402.41
2019-02-27T05:41:18.896Z,97405.42
2019-02-27T05:43:48.454Z,97408.73
2019-02-27T05:46:15.189Z,97405.41
2019-02-27T05:48:42.311Z,97408.23
2019-02-27T05:51:10.737Z,97409.73
2019-02-27T05:53:37.798Z,97413.72
2019-02-27T05:56:04.827Z,97411.89
2019-02-27T05:58:31.865Z,97419.70
2019-02-27T06:00:58.891Z,97420.51
2019-02-27T06:03:25.937Z,97418.83
2019-02-27T06:05:52.995Z,97417.44
2019-02-27T06:08:20.035Z,97416.66
2019-02-27T06:10:47.055Z,97420.78
2019-02-27T06:13:14.700Z,97415.27
2019-02-27T06:15:41.859Z,97411.09
2019-02-27T06:18:08.923Z,97417.71
2019-02-27T06:20:35.953Z,97417.03
2019-02-27T06:23:04.398Z,97410.46
2019-02-27T06:25:32.103Z,97422.05
2019-02-27T06:27:59.151Z,97422.28
2019-02-27T06:30:27.955Z,97418.40
2019-02-27T06:32:55.263Z,97421.39
2019-02-27T06:35:22.305Z,97420.39
2019-02-27T06:37:50.702Z,97432.80
2019-02-27T06:40:18.568Z,97429.77
2019-02-27T06:42:45.688Z,97427.75
2019-02-27T06:45:13.494Z,97430.56
2019-02-27T06:47:40.523Z,97429.85
2019-02-27T06:50:09.298Z,97436.11
2019-02-27T06:52:36.353Z,97431.70
2019-02-27T06:55:03.980Z,97431.44
2019-02-27T06:57:31.149Z,97439.61
2019-02-27T07:00:02.067Z,97443.47
2019-02-27T07:02:27.129Z,97438.33
2019-02-27T07:04:54.185Z,97440.92
2019-02-27T07:07:21.230Z,97434.98
2019-02-27T07:09:48.292Z,97427.97
2019-02-27T07:12:15.357Z,97431.56
2019-02-27T07:14:42.392Z,97430.70
2019-02-27T07:17:09.430Z,97427.02
2019-02-27T07:19:36.468Z,97426.79
2019-02-27T07:22:03.504Z,97422.37
2019-02-27T07:24:33.045Z,97423.70
2019-02-27T07:26:59.516Z,97423.57
2019-02-27T07:29:27.560Z,97427.80
2019-02-27T07:31:57.160Z,97423.41
2019-02-27T07:34:24.142Z,97431.94
2019-02-27T07:36:51.203Z,97427.73
2019-02-27T07:39:18.260Z,97428.48
2019-02-27T07:41:45.350Z,97434.41
2019-02-27T07:44:12.388Z,97431.61
2019-02-27T07:46:39.487Z,97438.13
2019-02-27T07:49:06.546Z,97433.63
2019-02-27T07:51:36.651Z,97434.76
2019-02-27T07:54:04.021Z,97438.73
2019-02-27T07:56:31.088Z,97436.33
2019-02-27T07:58:58.137Z,97437.10
2019-02-27T08:01:25.171Z,97437.66
2019-02-27T08:03:52.221Z,97435.26
2019-02-27T08:06:19.356Z,97432.87
2019-02-27T08:08:46.396Z,97430.98
2019-02-27T08:11:14.156Z,97436.24
2019-02-27T08:13:41.332Z,97435.92
2019-02-27T08:16:08.356Z,97430.90
2019-02-27T08:18:37.717Z,97423.84
2019-02-27T08:21:04.383Z,97422.86
2019-02-27T08:23:31.727Z,97412.33
2019-02-27T08:26:04.774Z,97418.77
2019-02-27T08:28:28.826Z,97410.56
2019-02-27T08:30:55.867Z,97408.56
2019-02-27T08:33:22.941Z,97410.97
2019-02-27T08:35:50.008Z,97409.53
2019-02-27T08:38:17.070Z,97402.07
2019-02-27T08:40:44.146Z,97393.05
2019-02-27T08:43:11.209Z,97393.04
2019-02-27T08:45:38.251Z,97397.25
2019-02-27T08:48:05.317Z,97391.06
2019-02-27T08:50:32.386Z,97392.97
2019-02-27T08:52:59.438Z,97386.75
2019-02-27T08:55:26.483Z,97391.64
2019-02-27T08:57:56.843Z,97383.21
2019-02-27T09:00:23.418Z,97390.26
2019-02-27T09:02:50.474Z,97380.67
2019-02-27T09:05:20.030Z,97385.04
2019-02-27T09:07:46.643Z,97382.53
2019-02-27T09:10:14.333Z,97375.10
2019-02-27T09:12:41.418Z,97380.60
2019-02-27T09:15:09.035Z,97378.84
2019-02-27T09:17:36.119Z,97378.97
2019-02-27T09:20:03.680Z,97377.92
2019-02-27T09:22:30.740Z,97368.64
2019-02-27T09:24:57.791Z,97368.13
2019-02-27T09:27:24.852Z,97362.43
2019-02-27T09:29:52.358Z,97369.25
2019-02-27T09:32:20.912Z,97361.41
2019-02-27T09:34:47.957Z,97360.89
2019-02-27T09:37:16.833Z,97359.11
2019-02-27T09:39:44.302Z,97359.94
2019-02-27T09:42:11.344Z,97357.01
2019-02-27T09:44:38.432Z,97355.25
2019-02-27T09:47:05.472Z,97355.10
2019-02-27T09:49:32.539Z,97351.38
2019-02-27T09:51:59.578Z,97347.80
2019-02-27T09:54:26.620Z,97348.19
2019-02-27T09:56:53.687Z,97341.61
2019-02-27T09:59:20.742Z,97346.30
2019-02-27T10:01:47.811Z,97341.78
2019-02-27T10:04:14.868Z,97346.31
2019-02-27T10:06:42.791Z,97339.14
2019-02-27T10:09:15.175Z,97337.86
2019-02-27T10:11:42.324Z,97334.08
2019-02-27T10:14:09.392Z,97330.33
2019-02-27T10:16:36.473Z,97326.68
2019-02-27T10:19:03.565Z,97324.66
2019-02-27T10:21:30.627Z,97314.31
2019-02-27T10:23:57.681Z,97311.42
2019-02-27T10:26:24.758Z,97310.31
2019-02-27T10:28:51.811Z,97305.73
2019-02-27T10:31:18.881Z,97304.92
2019-02-27T10:33:45.967Z,97305.58
2019-02-27T10:36:13.066Z,97300.27
2019-02-27T10:38:40.584Z,97293.89
2019-02-27T10:41:07.742Z,97282.52
2019-02-27T10:43:34.820Z,97282.52
2019-02-27T10:46:01.997Z,97284.06
2019-02-27T10:48:29.086Z,97275.81
2019-02-27T10:50:56.131Z,97275.81
2019-02-27T10:53:27.198Z,97264.65
2019-02-27T10:55:52.146Z,97260.72
2019-02-27T10:58:19.207Z,97260.20
2019-02-27T11:00:48.660Z,97255.36
2019-02-27T11:03:15.745Z,97253.77
2019-02-27T11:05:42.799Z,97250.39
2019-02-27T11:08:09.843Z,97253.05
2019-02-27T11:10:36.913Z,97250.15
2019-02-27T11:13:06.773Z,97243.70
2019-02-27T11:15:32.976Z,97232.63
2019-02-27T11:18:04.174Z,97231.05
2019-02-27T11:20:29.011Z,97232.21
2019-02-27T11:22:56.072Z,97230.16
2019-02-27T11:25:23.310Z,97219.61
2019-02-27T11:27:50.370Z,97217.69
2019-02-27T11:30:19.638Z,97211.13
2019-02-27T11:32:46.689Z,97212.09
2019-02-27T11:35:13.757Z,97205.19
2019-02-27T11:37:40.911Z,97207.85
2019-02-27T11:40:09.893Z,97207.52
2019-02-27T11:42:36.955Z,97196.23
2019-02-27T11:45:04.515Z,97198.52
2019-02-27T11:47:31.700Z,97191.59
2019-02-27T11:49:58.747Z,97188.61
2019-02-27T11:52:28.719Z,97190.35
2019-02-27T11:54:54.780Z,97181.72
2019-02-27T11:57:21.826Z,97174.23
2019-02-27T11:59:48.902Z,97170.75
2019-02-27T12:02:15.934Z,97170.01
2019-02-27T12:04:43.002Z,97165.96
2019-02-27T12:07:10.059Z,97169.52
2019-02-27T12:09:37.079Z,97162.98
2019-02-27T12:12:04.156Z,97161.56
2019-02-27T12:14:31.215Z,97167.03
2019-02-27T12:16:58.272Z,97155.39
2019-02-27T12:19:25.356Z,97145.92
2019-02-27T12:21:52.391Z,97141.08
2019-02-27T12:24:19.626Z,97141.67
2019-02-27T12:26:46.738Z,97132.98
2019-02-27T12:29:13.794Z,97128.09
2019-02-27T12:31:40.878Z,97127.53
2019-02-27T12:34:07.948Z,97122.91
2019-02-27T12:36:35.006Z,97118.84
2019-02-27T12:39:03.194Z,97113.13
2019-02-27T12:41:32.484Z,97112.30
2019-02-27T12:43:59.254Z,97108.75
2019-02-27T12:46:26.308Z,97107.63
2019-02-27T12:48:53.401Z,97104.59
2019-02-27T12:51:21.106Z,97103.20
2019-02-27T12:53:48.210Z,97094.84
2019-02-27T12:56:15.276Z,97090.23
2019-02-27T12:58:42.414Z,97085.62
2019-02-27T13:01:09.509Z,97086.98
2019-02-27T13:03:36.583Z,97079.62
2019-02-27T13:06:03.970Z,97072.28
2019-02-27T13:08:31.053Z,97071.44
2019-02-27T13:10:58.125Z,97066.54
2019-02-27T13:13:25.892Z,97060.00
2019-02-27T13:15:53.581Z,97066.55
2019-02-27T13:18:20.624Z,97058.39
2019-02-27T13:20:47.710Z,97058.13
2019-02-27T13:23:14.751Z,97064.63
2019-02-27T13:25:41.815Z,97056.73
2019-02-27T13:28:08.887Z,97055.66
2019-02-27T13:30:35.933Z,97048.03
2019-02-27T13:33:02.995Z,97046.13
2019-02-27T13:35:30.071Z,97046.13
2019-02-27T13:37:57.175Z,97032.50
2019-02-27T13:40:24.241Z,97030.31
2019-02-27T13:42:53.380Z,97036.87
2019-02-27T13:45:21.804Z,97024.07
2019-02-27T13:47:48.890Z,97021.87
2019-02-27T13:50:16.823Z,97015.88
2019-02-27T13:52:44.507Z,97017.52
2019-02-27T13:55:15.017Z,97013.71
2019-02-27T13:57:42.460Z,97011.50
2019-02-27T14:00:12.792Z,97007.95
2019-02-27T14:02:39.869Z,97014.73
2019-02-27T14:05:07.012Z,97004.09
2019-02-27T14:07:34.069Z,97000.53
2019-02-27T14:10:01.112Z,96994.79
2019-02-27T14:12:29.935Z,96987.70
2019-02-27T14:14:57.147Z,96995.83
2019-02-27T14:17:24.200Z,96980.30
2019-02-27T14:19:51.245Z,96986.02
2019-02-27T14:22:18.298Z,96977.00
2019-02-27T14:24:45.374Z,96975.02
2019-02-27T14:27:15.237Z,96975.14
2019-02-27T14:29:42.306Z,96966.29
2019-02-27T14:32:09.360Z,96962.67
2019-02-27T14:34:36.426Z,96956.31
2019-02-27T14:37:03.468Z,96951.52
2019-02-27T14:39:30.554Z,96945.90
2019-02-27T14:41:57.605Z,96942.25
2019-02-27T14:44:24.717Z,96942.41
2019-02-27T14:46:51.782Z,96934.38
2019-02-27T14:49:19.044Z,96925.33
2019-02-27T14:51:46.084Z,96925.86
2019-02-27T14:54:13.198Z,96913.25
2019-02-27T14:56:41.741Z,96921.87
2019-02-27T14:59:09.272Z,96915.66
2019-02-27T15:01:36.330Z,96908.85
2019-02-27T15:04:03.415Z,96907.37
2019-02-27T15:06:30.517Z,96904.11
2019-02-27T15:08:58.224Z,96901.20
2019-02-27T15:11:26.593Z,96903.99
2019-02-27T15:13:53.664Z,96900.61
2019-02-27T15:16:21.878Z,96895.52
2019-02-27T15:18:49.050Z,96897.75
2019-02-27T15:21:16.096Z,96893.20
2019-02-27T15:23:43.162Z,96893.50
2019-02-27T15:26:12.846Z,96886.34
2019-02-27T15:28:39.256Z,96897.70
2019-02-27T15:31:06.339Z,96895.51
2019-02-27T15:33:35.829Z,96887.55
2019-02-27T15:36:02.399Z,96885.57
2019-02-27T15:38:29.470Z,96881.46
2019-02-27T15:40:56.555Z,96884.00
2019-02-27T15:43:23.641Z,96882.88
2019-02-27T15:45:50.699Z,96883.38
2019-02-27T15:48:17.770Z,96885.06
2019-02-27T15:50:44.899Z,96881.61
2019-02-27T15:53:14.854Z,96873.09
2019-02-27T15:55:40.969Z,96873.56
2019-02-27T15:58:08.311Z,96866.69
2019-02-27T16:00:35.488Z,96869.58
2019-02-27T16:03:02.582Z,96867.68
2019-02-27T16:05:31.383Z,96874.63
2019-02-27T16:07:58.750Z,96870.47
2019-02-27T16:10:25.853Z,96872.05
2019-02-27T16:12:52.931Z,96872.43
2019-02-27T16:15:20.185Z,96869.45
2019-02-27T16:17:47.249Z,96871.59
2019-02-27T16:20:16.157Z,96858.09
2019-02-27T16:22:43.952Z,96855.59
2019-02-27T16:25:13.949Z,96860.04
2019-02-27T16:27:42.239Z,96864.27
2019-02-27T16:30:20.523Z,96863.59
2019-02-27T16:32:48.522Z,96863.23
2019-02-27T16:35:16.646Z,96868.26
2019-02-27T16:37:43.720Z,96871.86
2019-02-27T16:40:11.818Z,96865.42
2019-02-27T16:42:39.710Z,96868.97
2019-02-27T16:45:09.353Z,96868.45
2019-02-27T16:47:36.411Z,96868.23
2019-02-27T16:50:03.846Z,96864.78
2019-02-27T16:52:31.750Z,96869.28
2019-02-27T16:55:01.457Z,96868.87
2019-02-27T16:57:27.819Z,96868.87
2019-02-27T16:59:54.906Z,96878.45
2019-02-27T17:02:21.985Z,96886.84
2019-02-27T17:04:49.130Z,96886.84
2019-02-27T17:07:16.175Z,96884.34
2019-02-27T17:09:43.860Z,96880.18
2019-02-27T17:12:12.014Z,96880.38
2019-02-27T17:14:39.442Z,96879.41
2019-02-27T17:17:06.612Z,96874.66
2019-02-27T17:19:36.518Z,96876.02
2019-02-27T17:22:02.710Z,96870.20
2019-02-27T17:24:29.816Z,96872.78
2019-02-27T17:26:56.933Z,96872.41
2019-02-27T17:29:26.443Z,96869.09
2019-02-27T17:31:55.797Z,96867.36
2019-02-27T17:34:22.035Z,96868.02
2019-02-27T17:36:49.135Z,96863.95
2019-02-27T17:39:16.241Z,96863.64
2019-02-27T17:41:45.400Z,96851.81
2019-02-27T17:44:12.591Z,96857.99
2019-02-27T17:46:39.694Z,96861.88
2019-02-27T17:49:07.378Z,96851.03
2019-02-27T17:51:34.506Z,96852.04
2019-02-27T17:54:01.622Z,96849.17
2019-02-27T17:56:30.508Z,96852.03
2019-02-27T17:59:00.052Z,96854.43
2019-02-27T18:01:27.188Z,96854.17
2019-02-27T18:03:55.144Z,96857.19
2019-02-27T18:06:22.247Z,96862.34
2019-02-27T18:08:51.546Z,96854.13
2019-02-27T18:11:19.511Z,96853.65
2019-02-27T18:13:50.029Z,96851.50
2019-02-27T18:16:17.185Z,96849.38
2019-02-27T18:18:44.336Z,96849.39
2019-02-27T18:21:11.511Z,96850.75
2019-02-27T18:23:39.006Z,96834.72
2019-02-27T18:26:06.199Z,96834.11
2019-02-27T18:28:33.698Z,96839.45
2019-02-27T18:31:00.981Z,96838.33
2019-02-27T18:33:29.128Z,96840.39
2019-02-27T18:35:56.276Z,96840.80
2019-02-27T18:38:27.631Z,96833.30
2019-02-27T18:40:52.465Z,96836.72
2019-02-27T18:43:19.940Z,96837.45
2019-02-27T18:45:48.177Z,96825.23
2019-02-27T18:48:16.318Z,96830.91
2019-02-27T18:50:44.129Z,96827.20
2019-02-27T18:53:14.068Z,96828.97
2019-02-27T18:55:41.725Z,96830.70
2019-02-27T18:58:08.887Z,96829.58
2019-02-27T19:00:38.088Z,96831.10
2019-02-27T19:03:05.384Z,96830.17
2019-02-27T19:05:38.151Z,96827.17
2019-02-27T19:08:05.787Z,96824.20
2019-02-27T19:10:41.403Z,96822.33
2019-02-27T19:13:05.584Z,96820.25
2019-02-27T19:15:33.880Z,96825.48
2019-02-27T19:18:03.687Z,96826.94
2019-02-27T19:20:35.706Z,96819.17
2019-02-27T19:23:03.373Z,96814.94
2019-02-27T19:25:35.521Z,96816.16
2019-02-27T19:28:06.208Z,96818.72
2019-02-27T19:30:34.759Z,96822.09
2019-02-27T19:33:04.267Z,96812.67
2019-02-27T19:35:32.784Z,96815.73
2019-02-27T19:38:00.514Z,96813.97
2019-02-27T19:40:30.468Z,96813.55
2019-02-27T19:43:00.016Z,96814.25
2019-02-27T19:45:27.406Z,96812.29
2019-02-27T19:47:55.873Z,96811.69
2019-02-27T19:50:26.098Z,96812.41
2019-02-27T19:52:55.708Z,96808.28
2019-02-27T19:55:26.526Z,96810.83
2019-02-27T19:57:52.654Z,96806.20
2019-02-27T20:00:24.075Z,96808.95
2019-02-27T20:02:55.159Z,96812.02
2019-02-27T20:05:22.158Z,96810.28
2019-02-27T20:07:50.514Z,96804.51
2019-02-27T20:10:20.887Z,96804.39
2019-02-27T20:12:52.728Z,96803.33
2019-02-27T20:15:19.564Z,96804.42
2019-02-27T20:17:46.946Z,96800.52
2019-02-27T20:20:14.513Z,96798.95
2019-02-27T20:22:42.292Z,96799.66
2019-02-27T20:25:12.050Z,96793.89
2019-02-27T20:27:40.142Z,96799.92
2019-02-27T20:30:14.344Z,96801.36
2019-02-27T20:32:45.049Z,96796.73
2019-02-27T20:35:17.315Z,96789.94
2019-02-27T20:37:44.969Z,96785.19
2019-02-27T20:40:15.266Z,96785.97
2019-02-27T20:42:50.386Z,96786.57
2019-02-27T20:45:17.628Z,96789.12
2019-02-27T20:47:45.519Z,96788.36
2019-02-27T20:50:20.934Z,96784.12
2019-02-27T20:52:46.502Z,96779.59
2019-02-27T20:55:15.068Z,96780.03
2019-02-27T20:57:44.890Z,96772.80
2019-02-27T21:00:13.257Z,96780.27
2019-02-27T21:02:40.656Z,96769.35
2019-02-27T21:05:09.493Z,96765.73
2019-02-27T21:07:37.860Z,96750.26
2019-02-27T21:10:08.269Z,96748.10
2019-02-27T21:12:37.382Z,96744.80
2019-02-27T21:15:05.694Z,96743.47
2019-02-27T21:17:32.968Z,96743.47
2019-02-27T21:20:00.470Z,96739.67
2019-02-27T21:22:27.857Z,96738.75
2019-02-27T21:24:55.596Z,96734.31
2019-02-27T21:27:22.783Z,96732.34
2019-02-27T21:29:49.881Z,96741.35
2019-02-27T21:32:17.020Z,96735.70
2019-02-27T21:34:44.150Z,96726.06
2019-02-27T21:37:11.276Z,96733.11
2019-02-27T21:39:39.175Z,96734.95
2019-02-27T21:42:07.156Z,96732.16
2019-02-27T21:44:34.285Z,96734.91
2019-02-27T21:47:01.420Z,96732.63
2019-02-27T21:49:31.614Z,96735.03
2019-02-27T21:51:57.731Z,96722.29
2019-02-27T21:54:24.870Z,96731.98
2019-02-27T21:56:52.562Z,96726.44
2019-02-27T21:59:19.816Z,96732.96
2019-02-27T22:01:50.083Z,96730.99
2019-02-27T22:04:17.177Z,96732.70
2019-02-27T22:06:44.250Z,96726.93
2019-02-27T22:09:13.657Z,96729.27
2019-02-27T22:11:40.284Z,96721.56
2019-02-27T22:14:07.358Z,96719.59
2019-02-27T22:16:34.536Z,96713.31
2019-02-27T22:19:01.610Z,96719.84
2019-02-27T22:21:31.314Z,96710.27
2019-02-27T22:23:57.602Z,96714.13
2019-02-27T22:26:24.762Z,96713.80
2019-02-27T22:28:54.385Z,96713.52
2019-02-27T22:31:20.783Z,96710.09
2019-02-27T22:33:47.824Z,96712.30
2019-02-27T22:36:14.868Z,96708.03
2019-02-27T22:38:41.907Z,96705.06
2019-02-27T22:41:09.687Z,96700.11
2019-02-27T22:43:37.193Z,96695.83
2019-02-27T22:46:04.268Z,96699.31
2019-02-27T22:48:31.313Z,96697.22
2019-02-27T22:50:58.364Z,96699.61
2019-02-27T22:53:26.192Z,96694.53
2019-02-27T22:55:54.383Z,96696.77
2019-02-27T22:58:21.431Z,96694.11
2019-02-27T23:01:05.880Z,96695.11
2019-02-27T23:03:41.323Z,96693.97
2019-02-27T23:06:12.228Z,96688.02
2019-02-27T23:08:38.438Z,96679.58
2019-02-27T23:11:05.657Z,96680.77
2019-02-27T23:13:32.719Z,96675.83
2019-02-27T23:15:59.754Z,96674.36
2019-02-27T23:18:33.719Z,96672.20
2019-02-27T23:21:00.788Z,96667.11
2019-02-27T23:23:27.812Z,96657.80
2019-02-27T23:25:54.888Z,96653.49
2019-02-27T23:28:21.933Z,96648.73
2019-02-27T23:30:49.000Z,96644.61
2019-02-27T23:33:16.021Z,96644.80
2019-02-27T23:35:43.051Z,96636.88
2019-02-27T23:38:10.092Z,96632.94
2019-02-27T23:40:37.134Z,96629.34
2019-02-27T23:43:04.185Z,96635.53
2019-02-27T23:45:31.215Z,96629.26
2019-02-27T23:47:59.225Z,96622.34
2019-02-27T23:50:27.185Z,96625.50
2019-02-27T23:52:54.242Z,96623.17
2019-02-27T23:55:21.319Z,96621.98
2019-02-27T23:57:48.360Z,96619.64
